This is the latest recevied weather packets stored in our database for station/object N4OGP-WX. If no packets are shown the sender has not sent any weather packets the latest 10 day(s).
| Time | Temp. | Humidity | Pressure | Rain* | Wind** | Luminosity | Snow |
|---|---|---|---|---|---|---|---|
| 1778164438 | 23.89° C | 42% | 1020.4 hPa | 0 mm | - | - | - |
| 1778164378 | 26.67° C | 83% | 1011 hPa | 0 mm | - | - | - |
| 1778164318 | 26.67° C | 83% | 1011 hPa | 0 mm | - | - | - |
| 1778164258 | 26.67° C | 84% | 1010.9 hPa | 0 mm | - | - | - |
| 1778164168 | 26.67° C | 84% | 1010.8 hPa | 0 mm | - | - | - |
| 1778164108 | 26.67° C | 83% | 1010.7 hPa | 0 mm | - | - | - |
| 1778164048 | 26.67° C | 83% | 1010.6 hPa | 0 mm | - | - | - |
| 1778163988 | 26.67° C | 84% | 1010.5 hPa | 0 mm | - | - | - |
| 1778163937 | 26.67° C | 84% | 1010.4 hPa | 0 mm | - | - | - |
| 1778163838 | 26.67° C | 84% | 1010.4 hPa | 0 mm | - | - | - |
| 1778163748 | 23.89° C | 42% | 1020.4 hPa | 0 mm | - | - | - |
| 1778163658 | 26.67° C | 84% | 1010.3 hPa | 0 mm | - | - | - |
| 1778163598 | 26.67° C | 84% | 1010.3 hPa | 0 mm | - | - | - |
| 1778163508 | 26.67° C | 84% | 1010.4 hPa | 0 mm | - | - | - |
| 1778163448 | 26.67° C | 84% | 1010.4 hPa | 0 mm | - | - | - |
| 1778163358 | 23.89° C | 42% | 1020.4 hPa | 0 mm | - | - | - |
| 1778163268 | 26.67° C | 84% | 1010.5 hPa | 0 mm | - | - | - |
| 1778163178 | 23.89° C | 42% | 1020.4 hPa | 0 mm | - | - | - |
| 1778163118 | 23.89° C | 42% | 1020.4 hPa | 0 mm | - | - | - |
| 1778163058 | 23.89° C | 42% | 1020.4 hPa | 0 mm | - | - | - |
| 1778162998 | 26.67° C | 85% | 1010.7 hPa | 0 mm | - | - | - |
| 1778162938 | 26.67° C | 86% | 1010.8 hPa | 0 mm | - | - | - |
| 1778162878 | 26.67° C | 85% | 1010.8 hPa | 0 mm | - | - | - |
| 1778162788 | 26.67° C | 85% | 1010.8 hPa | 0 mm | - | - | - |
| 1778162698 | 26.67° C | 85% | 1010.8 hPa | 0 mm | - | - | - |
* Rain latest hour (hover to see other rain measurements)
** Current wind speed in m/s (hover to see current wind gust speed)